Time;durP1;ratioP1;P1;durP2;ratioP2;P2;SDS_P1;SDS_P2;PMS_P1;PMS_P2;Temp;Humidity;BMP_temperature;BMP_pressure;BME280_temperature;BME280_humidity;BME280_pressure;Samples;Min_cycle;Max_cycle;Signal;HPM_P1;HPM_P2
2023/01/24 00:02:04;;;;;;;33.40;14.57;;;3.40;87.60;;;;;;5026543;28;20267;-77
2023/01/24 00:04:29;;;;;;;36.90;15.60;;;3.40;87.40;;;;;;5025869;28;20197;-77
2023/01/24 00:06:55;;;;;;;36.83;15.27;;;3.40;87.60;;;;;;5027390;28;20671;-75
2023/01/24 00:09:20;;;;;;;31.10;15.23;;;3.40;87.60;;;;;;5021362;28;20284;-75
2023/01/24 00:11:46;;;;;;;33.37;16.30;;;3.50;87.60;;;;;;5026507;28;20189;-76
2023/01/24 00:14:11;;;;;;;33.00;13.97;;;3.50;87.40;;;;;;5029942;28;20603;-77
2023/01/24 00:16:37;;;;;;;31.80;14.80;;;3.40;87.40;;;;;;5028835;28;20541;-76
2023/01/24 00:19:02;;;;;;;29.97;15.07;;;3.40;87.40;;;;;;5022316;28;20611;-77
2023/01/24 00:21:28;;;;;;;32.20;15.10;;;3.40;87.60;;;;;;5031912;28;20185;-76
2023/01/24 00:23:54;;;;;;;33.70;16.43;;;3.50;87.60;;;;;;5031758;28;20300;-76
2023/01/24 00:26:22;;;;;;;31.13;14.37;;;3.50;87.40;;;;;;5031504;28;20204;-77
2023/01/24 00:28:49;;;;;;;31.42;14.98;;;3.40;87.30;;;;;;5030803;28;20460;-75
2023/01/24 00:31:15;;;;;;;30.40;14.60;;;3.40;87.40;;;;;;5035336;28;20196;-76
2023/01/24 00:33:41;;;;;;;26.93;13.90;;;3.50;87.60;;;;;;5035701;28;20524;-77
2023/01/24 00:36:07;;;;;;;32.77;15.30;;;3.50;87.10;;;;;;5037729;28;20416;-75
2023/01/24 00:38:33;;;;;;;27.90;13.80;;;3.50;87.10;;;;;;5031628;28;20435;-77
2023/01/24 00:40:58;;;;;;;30.57;14.67;;;3.50;87.10;;;;;;5035850;28;20471;-77
2023/01/24 00:43:26;;;;;;;32.13;14.20;;;3.50;87.00;;;;;;5030828;28;20189;-77
2023/01/24 00:45:51;;;;;;;33.93;16.13;;;3.60;87.00;;;;;;5033566;28;20463;-77
2023/01/24 00:48:17;;;;;;;29.50;14.30;;;3.50;86.90;;;;;;5029488;28;20433;-77
2023/01/24 00:50:43;;;;;;;27.50;13.40;;;3.50;86.90;;;;;;5025681;28;20209;-75
2023/01/24 00:53:08;;;;;;;28.50;13.20;;;3.50;87.00;;;;;;5023633;28;20571;-76
2023/01/24 00:55:34;;;;;;;29.03;13.57;;;3.50;86.90;;;;;;5033252;28;20177;-76
2023/01/24 00:58:00;;;;;;;28.43;12.70;;;3.40;86.90;;;;;;5029156;28;20639;-77
2023/01/24 01:00:25;;;;;;;35.43;14.70;;;3.40;87.00;;;;;;5028153;28;20711;-76
2023/01/24 01:02:51;;;;;;;30.93;13.80;;;3.50;87.00;;;;;;5027315;28;20233;-77
2023/01/24 01:05:17;;;;;;;23.73;13.23;;;3.50;86.60;;;;;;5029282;28;20185;-76
2023/01/24 01:07:43;;;;;;;30.10;13.60;;;3.50;86.60;;;;;;5025996;28;20593;-76
2023/01/24 01:10:09;;;;;;;30.73;13.73;;;3.40;86.50;;;;;;5027554;28;20455;-78
2023/01/24 01:12:35;;;;;;;27.33;13.75;;;3.50;86.60;;;;;;5026236;28;20208;-77
2023/01/24 01:15:01;;;;;;;27.40;13.83;;;3.50;86.60;;;;;;5029788;28;20173;-78
2023/01/24 01:17:27;;;;;;;33.63;14.40;;;3.50;86.50;;;;;;5032126;28;20188;-77
2023/01/24 01:19:53;;;;;;;29.73;14.47;;;3.50;86.30;;;;;;5025658;28;20208;-77
2023/01/24 01:22:19;;;;;;;27.60;12.97;;;3.60;86.30;;;;;;5031298;28;20420;-78
2023/01/24 01:24:45;;;;;;;30.25;15.07;;;3.60;86.20;;;;;;5032272;28;20537;-77
2023/01/24 01:27:12;;;;;;;30.37;14.27;;;3.50;86.20;;;;;;5029335;28;20189;-77
2023/01/24 01:29:38;;;;;;;30.40;14.37;;;3.50;86.20;;;;;;5025307;28;20467;-76
2023/01/24 01:32:04;;;;;;;30.80;13.33;;;3.50;86.00;;;;;;5027438;28;21025;-77
2023/01/24 01:34:29;;;;;;;29.53;13.60;;;3.50;86.20;;;;;;5029843;28;20186;-77
2023/01/24 01:36:55;;;;;;;30.87;13.60;;;3.60;86.20;;;;;;5033369;28;20455;-76
2023/01/24 01:39:20;;;;;;;25.90;13.03;;;3.60;86.20;;;;;;5034389;28;20209;-76
2023/01/24 01:41:46;;;;;;;28.10;13.30;;;3.70;86.00;;;;;;5028102;28;20750;-76
2023/01/24 01:44:41;;;;;;;28.63;13.87;;;3.70;86.00;;;;;;5032240;28;20239;-77
2023/01/24 01:47:27;;;;;;;27.03;12.67;;;3.70;85.70;;;;;;5030011;28;20377;-76
2023/01/24 01:50:27;;;;;;;28.57;13.03;;;3.60;85.70;;;;;;5023638;28;20470;-76
2023/01/24 01:52:53;;;;;;;38.90;13.50;;;3.60;85.90;;;;;;5020666;28;20518;-76
2023/01/24 01:55:23;;;;;;;30.03;13.57;;;3.70;85.90;;;;;;5032367;28;20181;-75
2023/01/24 01:57:51;;;;;;;28.37;12.73;;;3.70;85.90;;;;;;5023533;28;20498;-77
2023/01/24 02:00:23;;;;;;;27.67;13.33;;;3.70;85.90;;;;;;5028750;28;20471;-76
2023/01/24 02:02:54;;;;;;;30.00;14.07;;;3.70;85.90;;;;;;5022855;28;20441;-76
2023/01/24 02:05:24;;;;;;;31.70;13.00;;;3.60;85.90;;;;;;5027808;28;20899;-76
2023/01/24 02:08:01;;;;;;;34.90;14.30;;;3.60;86.00;;;;;;5040574;28;20438;-75
2023/01/24 02:13:13;;;;;;;29.93;14.27;;;3.60;86.30;;;;;;5031630;28;20485;-75
2023/01/24 02:18:23;;;;;;;27.67;14.57;;;3.60;86.30;;;;;;5028886;28;20231;-76
2023/01/24 02:20:49;;;;;;;28.97;13.03;;;3.70;86.20;;;;;;5028433;28;20419;-75
2023/01/24 02:23:53;;;;;;;30.00;14.47;;;3.70;86.20;;;;;;5030045;28;20649;-77
2023/01/24 02:26:25;;;;;;;27.60;13.60;;;3.70;86.00;;;;;;5026229;28;20811;-77
2023/01/24 02:28:59;;;;;;;30.57;14.33;;;3.70;86.00;;;;;;5025783;28;20213;-77
2023/01/24 02:31:25;;;;;;;30.07;14.70;;;3.70;86.00;;;;;;5025705;28;20514;-77
2023/01/24 02:34:33;;;;;;;33.70;13.60;;;3.70;86.00;;;;;;5026176;28;20518;-77
2023/01/24 02:37:10;;;;;;;27.13;13.00;;;3.70;86.20;;;;;;5026688;28;20424;-77
2023/01/24 02:39:56;;;;;;;31.23;14.63;;;3.70;86.00;;;;;;5025943;28;20490;-77
2023/01/24 02:42:30;;;;;;;25.37;12.53;;;3.70;86.00;;;;;;5030394;28;20424;-77
2023/01/24 02:45:04;;;;;;;33.87;14.60;;;3.60;86.20;;;;;;5036272;28;20482;-77
2023/01/24 02:47:34;;;;;;;27.33;13.77;;;3.60;86.30;;;;;;5034835;28;20430;-77
2023/01/24 02:50:00;;;;;;;29.73;14.60;;;3.60;86.30;;;;;;5022675;28;20546;-77
2023/01/24 02:55:10;;;;;;;34.72;14.30;;;3.50;86.60;;;;;;5029165;28;20473;-77
2023/01/24 03:00:20;;;;;;;32.83;13.63;;;3.50;87.10;;;;;;5034218;28;20254;-75
2023/01/24 03:02:46;;;;;;;28.97;13.70;;;3.50;87.00;;;;;;5035682;28;20428;-77
2023/01/24 03:05:12;;;;;;;28.80;12.80;;;3.40;87.00;;;;;;5033654;28;20177;-76
2023/01/24 03:07:47;;;;;;;26.80;13.53;;;3.40;87.30;;;;;;5032017;28;20420;-75
2023/01/24 03:10:15;;;;;;;25.42;13.13;;;3.50;87.40;;;;;;5026233;28;20208;-77
2023/01/24 03:34:48;;;;;;;29.23;13.20;;;3.50;87.30;;;;;;5032712;28;20647;-76
2023/01/24 03:37:16;;;;;;;27.95;12.93;;;3.50;87.30;;;;;;5031137;28;20184;-76
2023/01/24 03:39:58;;;;;;;31.60;14.63;;;3.40;87.30;;;;;;5024851;28;20205;-77
2023/01/24 03:42:25;;;;;;;28.13;12.85;;;3.50;87.60;;;;;;5027178;28;20255;-77
2023/01/24 03:44:50;;;;;;;27.80;13.38;;;3.50;87.60;;;;;;5023749;28;20186;-77
2023/01/24 03:47:16;;;;;;;29.17;13.60;;;3.50;87.40;;;;;;5028717;28;20184;-76
2023/01/24 03:52:28;;;;;;;31.75;13.90;;;3.40;87.40;;;;;;5025569;28;20320;-77
2023/01/24 03:54:59;;;;;;;29.67;13.32;;;3.50;87.60;;;;;;5021491;28;20266;-77
2023/01/24 03:57:26;;;;;;;29.02;14.43;;;3.40;87.40;;;;;;5025900;28;20208;-77
2023/01/24 03:59:52;;;;;;;32.58;14.23;;;3.40;87.60;;;;;;5017572;28;20221;-77
2023/01/24 04:02:18;;;;;;;30.67;14.33;;;3.40;87.70;;;;;;5025044;28;20267;-77
2023/01/24 04:07:29;;;;;;;28.63;13.60;;;3.30;87.70;;;;;;5025432;28;20475;-76
2023/01/24 04:09:54;;;;;;;35.33;14.60;;;3.30;87.80;;;;;;5025891;28;20213;-77
2023/01/24 04:12:20;;;;;;;36.53;14.17;;;3.40;88.00;;;;;;5030367;28;20479;-77
2023/01/24 04:14:46;;;;;;;33.17;14.50;;;3.40;88.00;;;;;;5025502;28;20181;-77
2023/01/24 04:17:12;;;;;;;32.50;14.50;;;3.40;87.70;;;;;;5027501;28;20182;-77
2023/01/24 04:19:37;;;;;;;30.53;13.80;;;3.40;87.60;;;;;;5025671;28;20291;-77
2023/01/24 04:22:03;;;;;;;32.77;14.70;;;3.40;87.80;;;;;;5024081;28;20435;-77
2023/01/24 04:24:28;;;;;;;29.27;13.97;;;3.40;87.80;;;;;;5029710;28;20200;-78
2023/01/24 04:26:54;;;;;;;28.60;12.93;;;3.40;87.80;;;;;;5026344;28;20188;-77
2023/01/24 04:29:20;;;;;;;30.37;13.90;;;3.40;87.80;;;;;;5023243;28;20367;-76
2023/01/24 04:31:46;;;;;;;28.73;13.63;;;3.40;87.60;;;;;;5027774;28;20177;-76
2023/01/24 04:34:12;;;;;;;29.53;13.57;;;3.40;87.70;;;;;;5031832;28;20463;-76
2023/01/24 04:36:37;;;;;;;29.20;14.63;;;3.40;87.80;;;;;;5025919;28;20433;-77
2023/01/24 04:39:03;;;;;;;32.27;14.27;;;3.50;87.70;;;;;;5024851;28;20201;-77
2023/01/24 04:41:28;;;;;;;28.10;14.10;;;3.50;87.60;;;;;;5027477;28;20185;-76
2023/01/24 04:43:54;;;;;;;32.73;14.50;;;3.40;87.60;;;;;;5026826;28;20185;-76
2023/01/24 04:46:20;;;;;;;28.20;13.17;;;3.40;87.60;;;;;;5025671;28;20522;-75
2023/01/24 04:48:46;;;;;;;31.97;15.03;;;3.50;87.60;;;;;;5023817;28;20586;-77
2023/01/24 04:51:12;;;;;;;32.37;15.27;;;3.40;87.60;;;;;;5030929;28;20912;-77
2023/01/24 04:53:39;;;;;;;32.47;15.83;;;3.30;87.80;;;;;;5031168;28;20259;-77
2023/01/24 04:56:06;;;;;;;40.50;16.13;;;3.30;88.00;;;;;;5029843;28;20642;-77
2023/01/24 04:58:33;;;;;;;33.60;13.97;;;3.40;88.00;;;;;;5023529;28;20499;-77
2023/01/24 05:00:59;;;;;;;31.83;15.23;;;3.40;88.00;;;;;;5029170;28;20430;-76
2023/01/24 05:03:24;;;;;;;32.37;15.53;;;3.40;88.10;;;;;;5032001;28;20181;-77
2023/01/24 05:05:51;;;;;;;32.93;14.10;;;3.50;88.00;;;;;;5024197;28;20190;-76
2023/01/24 05:08:16;;;;;;;36.53;14.93;;;3.50;87.80;;;;;;5029105;28;20422;-78
2023/01/24 05:10:42;;;;;;;26.23;13.13;;;3.50;87.70;;;;;;5031680;28;20964;-76
2023/01/24 05:13:08;;;;;;;28.43;14.10;;;3.50;87.70;;;;;;5029292;28;20201;-76
2023/01/24 05:15:33;;;;;;;30.70;14.17;;;3.50;87.40;;;;;;5032480;28;20259;-76
2023/01/24 05:17:59;;;;;;;30.33;14.23;;;3.50;87.60;;;;;;5035409;28;20208;-76
2023/01/24 05:20:25;;;;;;;28.93;14.43;;;3.60;87.40;;;;;;5029152;28;20812;-76
2023/01/24 05:22:50;;;;;;;33.50;14.07;;;3.60;87.10;;;;;;5030296;28;20507;-77
2023/01/24 05:25:16;;;;;;;33.13;15.40;;;3.60;87.30;;;;;;5030272;28;20219;-78
2023/01/24 05:27:42;;;;;;;33.60;15.00;;;3.50;87.30;;;;;;5043349;28;20181;-77
2023/01/24 05:30:08;;;;;;;32.23;14.37;;;3.60;87.40;;;;;;5034719;28;20548;-76
2023/01/24 05:32:34;;;;;;;33.80;14.90;;;3.60;87.40;;;;;;5024491;28;20243;-77
2023/01/24 05:34:59;;;;;;;29.83;14.77;;;3.60;87.40;;;;;;5032864;28;20661;-76
2023/01/24 05:37:25;;;;;;;34.97;14.83;;;3.60;87.40;;;;;;5036488;28;20572;-76
2023/01/24 05:39:50;;;;;;;38.40;15.03;;;3.60;87.30;;;;;;5034233;28;20322;-76
2023/01/24 05:42:16;;;;;;;31.67;14.50;;;3.60;87.10;;;;;;5030382;28;20670;-76
2023/01/24 05:44:42;;;;;;;36.50;14.53;;;3.60;87.30;;;;;;5028609;28;20735;-76
2023/01/24 05:47:07;;;;;;;29.00;14.47;;;3.50;87.40;;;;;;5034975;28;20233;-76
2023/01/24 05:49:33;;;;;;;34.90;15.40;;;3.50;87.60;;;;;;5031196;28;20692;-76
2023/01/24 05:51:58;;;;;;;31.10;14.23;;;3.50;87.60;;;;;;5032672;28;20652;-77
2023/01/24 05:54:24;;;;;;;34.30;14.73;;;3.50;87.70;;;;;;5029427;28;20562;-75
2023/01/24 05:56:49;;;;;;;36.00;14.80;;;3.60;87.80;;;;;;5029557;28;20211;-75
2023/01/24 05:59:15;;;;;;;31.17;13.77;;;3.70;88.00;;;;;;5027403;28;20221;-74
2023/01/24 06:01:41;;;;;;;30.07;13.67;;;3.70;87.70;;;;;;5030991;28;20196;-76
2023/01/24 06:04:06;;;;;;;31.17;14.10;;;3.70;87.40;;;;;;5035986;28;20185;-74
2023/01/24 06:06:32;;;;;;;35.77;15.03;;;3.70;87.30;;;;;;5029656;28;20189;-73
2023/01/24 06:08:57;;;;;;;38.87;16.27;;;3.80;87.40;;;;;;5025676;28;20221;-75
2023/01/24 06:11:27;;;;;;;33.57;15.40;;;3.80;87.10;;;;;;5031210;28;20428;-74
2023/01/24 06:13:53;;;;;;;34.10;14.97;;;3.80;86.90;;;;;;5023438;28;20677;-75
2023/01/24 06:16:22;;;;;;;33.33;14.93;;;3.80;87.10;;;;;;5028813;28;20527;-75
2023/01/24 06:18:49;;;;;;;33.00;15.03;;;3.80;87.00;;;;;;5024526;28;21285;-77
2023/01/24 06:21:23;;;;;;;36.35;15.20;;;3.80;86.90;;;;;;5035178;28;20760;-77
2023/01/24 06:23:49;;;;;;;32.43;14.40;;;3.70;87.00;;;;;;5035760;28;20648;-76
2023/01/24 06:26:15;;;;;;;35.00;15.60;;;3.70;87.10;;;;;;5036331;28;20499;-77
2023/01/24 06:28:41;;;;;;;32.50;15.60;;;3.60;87.30;;;;;;5033625;28;20222;-75
2023/01/24 06:31:27;;;;;;;39.60;16.20;;;3.60;87.40;;;;;;5040082;28;20623;-76
2023/01/24 06:34:23;;;;;;;34.17;15.23;;;3.70;87.40;;;;;;5032155;28;20224;-77
2023/01/24 06:36:53;;;;;;;41.80;15.23;;;3.60;87.40;;;;;;5024389;28;20891;-77
2023/01/24 06:39:20;;;;;;;33.10;14.70;;;3.60;87.60;;;;;;5024870;28;20459;-79
2023/01/24 06:41:47;;;;;;;37.77;15.87;;;3.60;87.70;;;;;;5020724;28;20530;-76
2023/01/24 06:44:13;;;;;;;32.40;15.43;;;3.60;87.80;;;;;;5029440;28;20441;-77
2023/01/24 06:46:39;;;;;;;34.10;15.50;;;3.60;87.80;;;;;;5032011;28;20250;-76
2023/01/24 06:49:04;;;;;;;34.83;15.27;;;3.50;88.00;;;;;;5033960;28;20473;-75
2023/01/24 06:51:30;;;;;;;33.47;15.57;;;3.50;88.10;;;;;;5027433;28;20587;-76
2023/01/24 06:53:55;;;;;;;37.23;17.50;;;3.50;88.30;;;;;;5031666;28;20714;-77
2023/01/24 06:56:21;;;;;;;34.97;15.47;;;3.40;88.40;;;;;;5026553;28;20704;-77
2023/01/24 06:58:47;;;;;;;39.63;17.47;;;3.40;88.60;;;;;;5028555;28;20221;-77
2023/01/24 07:01:13;;;;;;;47.90;18.27;;;3.40;88.60;;;;;;5030766;28;20180;-76
2023/01/24 07:03:38;;;;;;;43.27;18.63;;;3.40;88.70;;;;;;5030722;28;20428;-76
2023/01/24 07:06:04;;;;;;;38.80;17.20;;;3.40;88.70;;;;;;5030547;28;20841;-77
2023/01/24 07:08:30;;;;;;;42.10;18.20;;;3.30;88.70;;;;;;5030473;28;20193;-77
2023/01/24 07:10:58;;;;;;;40.07;17.47;;;3.30;88.90;;;;;;5028759;28;20181;-77
2023/01/24 07:13:24;;;;;;;39.40;15.80;;;3.30;88.90;;;;;;5031665;28;20212;-77
2023/01/24 07:15:49;;;;;;;37.10;15.13;;;3.30;88.90;;;;;;5030661;28;20420;-76
2023/01/24 07:18:17;;;;;;;39.03;16.20;;;3.40;88.90;;;;;;5031585;28;20763;-77
2023/01/24 07:20:43;;;;;;;39.35;16.35;;;3.30;88.60;;;;;;5030857;28;20181;-76
2023/01/24 07:23:24;;;;;;;40.67;15.63;;;3.30;88.70;;;;;;5032218;28;20192;-75
2023/01/24 07:25:51;;;;;;;31.73;15.27;;;3.30;88.90;;;;;;5029597;28;20478;-78
2023/01/24 07:28:18;;;;;;;40.90;17.30;;;3.30;89.20;;;;;;5033312;28;20429;-76
2023/01/24 07:30:45;;;;;;;36.30;15.80;;;3.30;88.90;;;;;;5044743;28;20440;-76
2023/01/24 07:33:12;;;;;;;38.07;17.33;;;3.30;88.90;;;;;;5038546;28;20482;-77
2023/01/24 07:35:38;;;;;;;40.60;16.67;;;3.30;88.70;;;;;;5036556;28;20416;-75
2023/01/24 07:38:03;;;;;;;42.70;16.87;;;3.40;88.90;;;;;;5037249;28;20431;-76
2023/01/24 07:40:29;;;;;;;36.50;15.47;;;3.40;88.70;;;;;;5038865;28;20491;-75
2023/01/24 07:42:54;;;;;;;41.47;16.03;;;3.30;88.40;;;;;;5031612;28;20750;-76
2023/01/24 07:45:20;;;;;;;41.17;15.87;;;3.30;88.60;;;;;;5030090;28;20242;-77
2023/01/24 07:47:46;;;;;;;35.80;16.23;;;3.40;88.60;;;;;;5029176;28;20200;-77
2023/01/24 07:50:11;;;;;;;43.10;15.93;;;3.40;88.40;;;;;;5036282;28;20262;-77
2023/01/24 07:52:37;;;;;;;35.20;16.17;;;3.40;88.40;;;;;;5034533;28;20255;-76
2023/01/24 07:55:03;;;;;;;31.43;14.83;;;3.40;88.40;;;;;;5034977;28;20177;-76
2023/01/24 07:57:28;;;;;;;33.22;14.45;;;3.40;88.30;;;;;;5027962;28;20201;-76
2023/01/24 07:59:54;;;;;;;32.93;15.10;;;3.40;88.30;;;;;;5029696;28;20743;-76
2023/01/24 08:02:19;;;;;;;33.00;15.20;;;3.40;88.30;;;;;;5028778;28;20185;-77
2023/01/24 08:04:45;;;;;;;40.47;16.80;;;3.40;88.30;;;;;;5029792;28;20185;-75
2023/01/24 08:07:16;;;;;;;42.87;16.37;;;3.40;88.30;;;;;;5031805;28;20181;-76
2023/01/24 08:09:42;;;;;;;36.35;15.40;;;3.30;88.10;;;;;;5031377;28;20208;-77
2023/01/24 08:12:08;;;;;;;36.27;17.20;;;3.40;88.60;;;;;;5029106;28;20189;-77
2023/01/24 08:14:34;;;;;;;35.57;15.13;;;3.40;88.30;;;;;;5031482;28;20511;-75
2023/01/24 08:16:59;;;;;;;36.90;16.20;;;3.30;88.40;;;;;;5027797;28;20439;-77
2023/01/24 08:19:25;;;;;;;35.77;14.90;;;3.40;88.40;;;;;;5030050;28;20228;-76
2023/01/24 08:21:50;;;;;;;34.27;14.20;;;3.40;88.30;;;;;;5032208;28;20260;-76
2023/01/24 08:24:16;;;;;;;36.33;15.43;;;3.40;88.30;;;;;;5029194;28;20185;-76
2023/01/24 08:26:45;;;;;;;32.90;15.50;;;3.30;88.30;;;;;;5031850;28;20186;-76
2023/01/24 08:29:11;;;;;;;34.05;14.70;;;3.30;88.40;;;;;;5025132;28;20714;-77
2023/01/24 08:31:37;;;;;;;37.40;15.17;;;3.30;88.60;;;;;;5023428;28;20186;-76
2023/01/24 08:34:03;;;;;;;42.07;16.57;;;3.40;88.60;;;;;;5030638;28;20463;-76
2023/01/24 08:36:28;;;;;;;34.70;15.40;;;3.50;88.40;;;;;;5029244;28;20230;-76
2023/01/24 08:38:54;;;;;;;32.70;14.80;;;3.50;88.30;;;;;;5031417;28;20232;-75
2023/01/24 08:41:19;;;;;;;31.10;14.47;;;3.50;87.80;;;;;;5037364;28;20177;-77
2023/01/24 08:43:45;;;;;;;35.97;16.03;;;3.40;87.80;;;;;;5035831;28;20211;-76
2023/01/24 08:46:10;;;;;;;39.53;15.83;;;3.40;88.00;;;;;;5030873;28;20676;-77
2023/01/24 08:48:36;;;;;;;32.60;14.90;;;3.50;88.10;;;;;;5034985;28;20209;-76
2023/01/24 08:51:06;;;;;;;40.33;15.07;;;3.50;88.10;;;;;;5030057;28;20197;-76
2023/01/24 08:53:32;;;;;;;27.67;14.45;;;3.50;87.80;;;;;;5024456;28;20288;-77
2023/01/24 08:55:58;;;;;;;33.50;15.13;;;3.50;87.80;;;;;;5029015;28;20185;-77
2023/01/24 08:58:23;;;;;;;35.50;15.27;;;3.50;87.80;;;;;;5027749;28;20444;-76
2023/01/24 09:00:49;;;;;;;34.03;16.23;;;3.60;87.80;;;;;;5032898;28;20181;-76
2023/01/24 09:03:17;;;;;;;36.23;16.37;;;3.60;87.60;;;;;;5036299;28;20195;-75
2023/01/24 09:05:43;;;;;;;36.83;15.50;;;3.60;87.60;;;;;;5034283;28;20221;-76
2023/01/24 09:08:09;;;;;;;32.63;14.67;;;3.60;87.40;;;;;;5036055;28;20431;-77
2023/01/24 09:10:35;;;;;;;33.37;15.30;;;3.60;87.40;;;;;;5035125;28;20212;-77
2023/01/24 09:13:02;;;;;;;39.87;16.17;;;3.60;87.40;;;;;;5032826;28;20236;-76
2023/01/24 09:15:28;;;;;;;36.60;15.77;;;3.60;87.40;;;;;;5035525;28;20441;-76
2023/01/24 09:17:53;;;;;;;33.80;14.83;;;3.70;87.40;;;;;;5027343;28;20503;-76
2023/01/24 09:20:19;;;;;;;34.60;14.50;;;3.70;87.60;;;;;;5028776;28;20607;-76
2023/01/24 09:22:44;;;;;;;35.57;16.40;;;3.80;87.10;;;;;;5033337;28;20219;-77
2023/01/24 09:25:10;;;;;;;37.67;15.50;;;3.80;87.00;;;;;;5022520;28;20186;-76
2023/01/24 09:27:37;;;;;;;33.80;15.43;;;3.70;87.00;;;;;;5032449;28;20188;-76
2023/01/24 09:30:04;;;;;;;37.07;17.07;;;3.70;87.00;;;;;;5030799;28;20328;-75
2023/01/24 09:32:30;;;;;;;41.30;16.13;;;3.70;87.10;;;;;;5034029;28;20475;-76
2023/01/24 09:34:56;;;;;;;35.27;15.20;;;3.70;87.40;;;;;;5031646;28;20208;-76
2023/01/24 09:37:22;;;;;;;33.70;15.30;;;3.80;87.30;;;;;;5033729;28;20219;-76
2023/01/24 09:39:48;;;;;;;39.37;16.50;;;3.80;86.90;;;;;;5022469;28;20289;-76
2023/01/24 09:42:16;;;;;;;32.23;14.20;;;3.70;87.00;;;;;;5029900;28;20451;-75
2023/01/24 09:44:50;;;;;;;37.43;14.50;;;3.70;87.00;;;;;;5027400;28;20417;-75
2023/01/24 09:47:18;;;;;;;32.72;14.75;;;3.80;87.10;;;;;;5031002;28;20416;-75
2023/01/24 09:50:05;;;;;;;33.10;13.97;;;3.80;86.90;;;;;;5034869;28;20207;-77
2023/01/24 09:52:39;;;;;;;31.60;15.63;;;3.80;86.80;;;;;;5028806;28;20490;-77
2023/01/24 09:55:26;;;;;;;31.50;13.57;;;3.90;86.50;;;;;;5028574;28;20487;-76
2023/01/24 09:58:18;;;;;;;31.50;13.90;;;3.80;86.30;;;;;;5024040;28;20443;-77
2023/01/24 10:00:44;;;;;;;29.60;13.75;;;3.80;86.50;;;;;;5030176;28;20483;-76
2023/01/24 10:03:20;;;;;;;34.43;14.20;;;3.80;86.80;;;;;;5033049;28;20587;-77
2023/01/24 10:05:55;;;;;;;32.58;13.85;;;3.90;86.90;;;;;;5027246;28;20452;-76
2023/01/24 10:08:37;;;;;;;32.10;14.00;;;3.90;86.50;;;;;;5029932;28;20608;-77
2023/01/24 10:11:37;;;;;;;28.37;13.63;;;3.80;86.50;;;;;;5041762;28;20415;-75
2023/01/24 10:14:30;;;;;;;32.43;13.97;;;3.80;86.80;;;;;;5029382;28;20883;-77
2023/01/24 10:17:13;;;;;;;21.57;11.83;;;3.80;86.80;;;;;;5025438;28;20499;-77
2023/01/24 10:19:57;;;;;;;26.53;13.10;;;3.80;86.80;;;;;;5033461;28;20986;-76
2023/01/24 10:22:49;;;;;;;25.97;12.70;;;3.80;86.50;;;;;;5031542;28;20416;-77
2023/01/24 10:25:38;;;;;;;28.30;12.33;;;3.80;86.50;;;;;;5028242;28;20795;-75
2023/01/24 10:28:04;;;;;;;27.03;12.03;;;3.80;86.30;;;;;;5023280;28;20852;-76
2023/01/24 10:30:35;;;;;;;32.30;13.03;;;3.80;86.50;;;;;;5026041;28;20455;-77
2023/01/24 10:33:04;;;;;;;31.73;13.77;;;3.90;86.50;;;;;;5022844;28;20547;-77
2023/01/24 10:35:42;;;;;;;27.40;12.00;;;3.90;86.30;;;;;;5028561;28;20248;-76
2023/01/24 10:38:13;;;;;;;28.33;11.03;;;3.90;85.90;;;;;;5029944;28;20432;-76
2023/01/24 10:41:13;;;;;;;30.60;13.00;;;4.00;86.20;;;;;;5028195;28;20431;-77
2023/01/24 10:43:41;;;;;;;23.10;11.00;;;4.00;85.70;;;;;;5022092;28;20436;-77
2023/01/24 10:46:18;;;;;;;22.53;11.60;;;4.00;85.60;;;;;;5025496;28;20583;-77
2023/01/24 10:48:52;;;;;;;32.27;13.60;;;4.10;85.60;;;;;;5021090;28;20551;-77
2023/01/24 10:51:23;;;;;;;27.27;12.77;;;4.10;85.50;;;;;;5030877;28;20507;-77
2023/01/24 10:53:48;;;;;;;24.33;11.07;;;4.10;85.00;;;;;;5025274;28;20990;-76
2023/01/24 10:56:20;;;;;;;23.63;11.30;;;4.10;85.30;;;;;;5032324;28;20512;-76
2023/01/24 10:59:09;;;;;;;23.10;11.10;;;4.10;85.20;;;;;;5022387;28;20706;-77
2023/01/24 11:01:44;;;;;;;29.03;12.53;;;4.20;85.20;;;;;;5024524;28;20469;-77
2023/01/24 11:04:18;;;;;;;24.93;11.53;;;4.20;84.70;;;;;;5029640;28;20844;-76
2023/01/24 11:06:47;;;;;;;22.30;11.27;;;4.20;84.90;;;;;;5034247;28;20462;-77
2023/01/24 11:09:20;;;;;;;24.30;11.90;;;4.30;84.70;;;;;;5030637;28;20806;-76
2023/01/24 11:11:53;;;;;;;25.77;11.87;;;4.30;84.70;;;;;;5026299;28;20515;-77
2023/01/24 11:14:37;;;;;;;26.35;11.05;;;4.30;84.60;;;;;;5030299;28;20472;-76
2023/01/24 11:17:05;;;;;;;23.80;11.37;;;4.30;84.40;;;;;;5026871;28;20645;-75
2023/01/24 11:19:33;;;;;;;21.63;11.30;;;4.40;84.60;;;;;;5026124;28;20516;-77
2023/01/24 11:22:01;;;;;;;23.90;11.17;;;4.40;84.40;;;;;;5029828;28;20927;-75
2023/01/24 11:24:29;;;;;;;24.60;11.60;;;4.40;84.30;;;;;;5031939;28;20503;-76
2023/01/24 11:27:02;;;;;;;24.63;11.63;;;4.40;84.10;;;;;;5030493;28;20435;-76
2023/01/24 11:29:28;;;;;;;23.43;10.53;;;4.40;84.30;;;;;;5032037;28;20474;-75
2023/01/24 11:32:35;;;;;;;26.47;12.17;;;4.40;84.40;;;;;;5035763;28;20423;-77
2023/01/24 11:35:20;;;;;;;28.40;11.87;;;4.30;84.30;;;;;;5024665;28;20563;-76
2023/01/24 11:38:31;;;;;;;20.87;9.93;;;4.20;85.00;;;;;;5020711;28;20419;-77
2023/01/24 11:41:38;;;;;;;27.60;12.10;;;4.30;85.30;;;;;;5019459;28;20546;-76
2023/01/24 11:44:18;;;;;;;21.03;11.00;;;4.40;84.90;;;;;;5003085;28;20427;-76
2023/01/24 11:47:01;;;;;;;23.47;11.43;;;4.40;84.40;;;;;;5026867;28;20530;-79
2023/01/24 11:49:53;;;;;;;23.97;11.60;;;4.40;84.70;;;;;;5029086;28;20466;-76
2023/01/24 11:52:39;;;;;;;21.13;11.00;;;4.40;84.60;;;;;;5023185;28;20522;-75
2023/01/24 11:55:13;;;;;;;24.17;11.23;;;4.40;84.40;;;;;;5024423;28;20424;-76
2023/01/24 11:58:03;;;;;;;24.63;10.77;;;4.40;84.90;;;;;;5027755;28;20451;-77
2023/01/24 12:00:39;;;;;;;29.83;12.40;;;4.40;84.70;;;;;;5027861;28;20602;-76
2023/01/24 12:03:32;;;;;;;28.20;11.07;;;4.50;84.70;;;;;;5021813;28;20420;-75
2023/01/24 12:06:07;;;;;;;26.60;11.63;;;4.50;84.60;;;;;;5031037;28;20450;-76
2023/01/24 12:08:50;;;;;;;30.70;12.27;;;4.40;84.70;;;;;;5007822;28;21029;-78
2023/01/24 12:11:29;;;;;;;23.97;11.40;;;4.40;84.60;;;;;;5013015;28;20539;-77
2023/01/24 12:14:09;;;;;;;25.50;12.23;;;4.40;84.90;;;;;;5023727;28;20518;-75
2023/01/24 12:16:57;;;;;;;27.93;12.20;;;4.40;84.40;;;;;;5050161;28;20760;-76
2023/01/24 12:20:01;;;;;;;24.03;11.23;;;4.40;85.00;;;;;;5040896;28;20459;-77
2023/01/24 12:22:28;;;;;;;21.93;11.10;;;4.30;84.70;;;;;;5039027;28;20416;-75
2023/01/24 12:25:11;;;;;;;22.73;10.30;;;4.30;85.00;;;;;;5044367;28;20499;-75
2023/01/24 12:27:37;;;;;;;27.80;12.80;;;4.30;85.30;;;;;;5042005;28;20915;-76
2023/01/24 12:30:26;;;;;;;21.67;10.50;;;4.30;85.20;;;;;;5039716;28;20464;-79
2023/01/24 12:33:13;;;;;;;25.53;12.03;;;4.30;85.30;;;;;;5033787;28;20546;-77
2023/01/24 12:35:48;;;;;;;26.47;11.50;;;4.20;85.30;;;;;;5032929;28;20415;-76
2023/01/24 12:38:22;;;;;;;21.50;11.10;;;4.20;85.70;;;;;;5030371;28;20467;-76
2023/01/24 12:41:07;;;;;;;24.33;11.23;;;4.20;85.60;;;;;;5036103;28;20881;-77
2023/01/24 12:43:59;;;;;;;23.83;11.60;;;4.30;85.60;;;;;;5028088;28;20483;-76
2023/01/24 12:46:27;;;;;;;25.23;11.73;;;4.30;85.50;;;;;;5033578;28;20946;-77
2023/01/24 12:49:14;;;;;;;19.47;10.80;;;4.30;85.20;;;;;;5029854;28;20471;-77
2023/01/24 12:51:46;;;;;;;23.67;11.30;;;4.30;85.20;;;;;;5035690;28;20475;-77
2023/01/24 12:54:18;;;;;;;22.37;11.50;;;4.30;85.30;;;;;;5032312;28;20464;-76
2023/01/24 12:57:01;;;;;;;27.13;11.40;;;4.40;85.50;;;;;;5028585;28;20416;-76
2023/01/24 12:59:29;;;;;;;23.47;10.87;;;4.40;85.00;;;;;;5031677;28;20535;-76
2023/01/24 13:02:32;;;;;;;22.03;10.73;;;4.30;84.70;;;;;;5035220;28;20515;-76
2023/01/24 13:05:28;;;;;;;22.43;10.77;;;4.20;85.20;;;;;;5030390;28;20424;-76
2023/01/24 13:08:23;;;;;;;24.07;11.67;;;4.30;85.50;;;;;;5032023;28;20438;-76
2023/01/24 13:10:52;;;;;;;22.83;11.50;;;4.20;85.00;;;;;;5029482;28;20447;-76
2023/01/24 13:13:33;;;;;;;22.37;11.07;;;4.20;85.30;;;;;;5034906;28;20548;-77
2023/01/24 13:16:58;;;;;;;24.37;11.40;;;4.20;85.30;;;;;;5028030;28;20456;-77
2023/01/24 13:19:48;;;;;;;21.73;10.67;;;4.20;85.70;;;;;;4993324;28;20547;-77
2023/01/24 13:22:47;;;;;;;19.80;10.03;;;4.30;85.30;;;;;;4989947;28;20794;-76
2023/01/24 13:25:44;;;;;;;24.90;11.40;;;4.30;85.30;;;;;;4993914;28;20791;-77
2023/01/24 13:28:26;;;;;;;25.90;11.90;;;4.40;85.20;;;;;;4988664;28;20862;-76
2023/01/24 13:31:13;;;;;;;20.80;11.27;;;4.30;84.60;;;;;;4993747;28;20928;-76
2023/01/24 13:33:47;;;;;;;26.53;10.83;;;4.30;85.00;;;;;;4975647;28;20462;-76
2023/01/24 13:36:20;;;;;;;26.40;12.13;;;4.30;85.20;;;;;;4989873;28;20417;-76